createdAt,value
2019-01-20T00:01:44.493Z,6.43
2019-01-20T00:04:13.993Z,6.13
2019-01-20T00:06:43.471Z,8.03
2019-01-20T00:09:12.991Z,7.40
2019-01-20T00:11:42.535Z,7.20
2019-01-20T00:14:12.050Z,7.33
2019-01-20T00:16:41.665Z,8.47
2019-01-20T00:19:11.154Z,6.90
2019-01-20T00:21:40.630Z,8.80
2019-01-20T00:24:10.136Z,7.83
2019-01-20T00:26:39.741Z,7.77
2019-01-20T00:29:09.230Z,5.83
2019-01-20T00:31:38.731Z,6.67
2019-01-20T00:34:08.273Z,9.47
2019-01-20T00:36:37.737Z,7.93
2019-01-20T00:39:09.526Z,6.70
2019-01-20T00:41:39.045Z,10.63
2019-01-20T00:44:08.538Z,6.37
2019-01-20T00:46:38.026Z,8.13
2019-01-20T00:49:07.562Z,5.97
2019-01-20T00:51:37.256Z,9.63
2019-01-20T00:54:06.830Z,7.77
2019-01-20T00:56:36.602Z,10.27
2019-01-20T00:59:06.080Z,8.00
2019-01-20T01:01:35.600Z,9.50
2019-01-20T01:04:05.259Z,8.40
2019-01-20T01:06:34.810Z,8.20
2019-01-20T01:09:05.941Z,10.80
2019-01-20T01:11:35.428Z,8.10
2019-01-20T01:14:05.199Z,10.73
2019-01-20T01:16:34.694Z,11.83
2019-01-20T01:19:04.214Z,12.40
2019-01-20T01:21:33.751Z,8.27
2019-01-20T01:24:03.256Z,7.47
2019-01-20T01:26:32.777Z,9.30
2019-01-20T01:29:02.258Z,8.00
2019-01-20T01:31:31.740Z,6.83
2019-01-20T01:34:01.274Z,7.03
2019-01-20T01:36:30.742Z,9.60
2019-01-20T01:39:00.262Z,8.43
2019-01-20T01:41:29.737Z,8.53
2019-01-20T01:44:00.128Z,8.83
2019-01-20T01:46:29.945Z,7.53
2019-01-20T01:48:59.473Z,8.43
2019-01-20T01:51:28.948Z,9.10
2019-01-20T01:53:58.451Z,9.00
2019-01-20T01:56:27.929Z,8.67
2019-01-20T01:58:57.469Z,7.20
2019-01-20T02:01:26.969Z,10.80
2019-01-20T02:03:56.448Z,9.87
2019-01-20T02:06:26.293Z,9.53
2019-01-20T02:08:55.781Z,9.33
2019-01-20T02:11:25.271Z,7.03
2019-01-20T02:13:54.759Z,7.47
2019-01-20T02:16:24.270Z,10.63
2019-01-20T02:18:53.872Z,10.60
2019-01-20T02:21:23.410Z,8.10
2019-01-20T02:23:52.926Z,10.57
2019-01-20T02:26:22.464Z,10.43
2019-01-20T02:28:51.973Z,8.27
2019-01-20T02:31:21.478Z,10.43
2019-01-20T02:33:50.950Z,8.10
2019-01-20T02:36:20.434Z,7.50
2019-01-20T02:38:49.925Z,10.93
2019-01-20T02:41:19.423Z,11.60
2019-01-20T02:43:48.905Z,8.53
2019-01-20T02:46:18.415Z,9.67
2019-01-20T02:48:47.895Z,10.03
2019-01-20T02:51:17.396Z,12.40
2019-01-20T02:53:46.861Z,14.60
2019-01-20T02:56:16.366Z,10.73
2019-01-20T02:58:45.833Z,10.70
2019-01-20T03:01:15.330Z,11.97
2019-01-20T03:03:44.783Z,12.47
2019-01-20T03:06:15.546Z,16.43
2019-01-20T03:08:45.090Z,11.47
2019-01-20T03:11:14.568Z,14.87
2019-01-20T03:13:44.033Z,10.30
2019-01-20T03:16:13.571Z,10.23
2019-01-20T03:18:43.276Z,14.50
2019-01-20T03:21:12.755Z,11.03
2019-01-20T03:23:42.303Z,12.50
2019-01-20T03:26:11.794Z,11.27
2019-01-20T03:28:41.254Z,12.57
2019-01-20T03:31:10.793Z,11.90
2019-01-20T03:33:40.261Z,8.00
2019-01-20T03:36:10.030Z,10.93
2019-01-20T03:38:39.534Z,7.10
2019-01-20T03:41:09.270Z,9.03
2019-01-20T03:43:38.797Z,8.33
2019-01-20T03:46:08.264Z,8.97
2019-01-20T03:48:37.798Z,8.63
2019-01-20T03:51:07.255Z,7.23
2019-01-20T03:53:36.759Z,8.53
2019-01-20T03:56:06.419Z,9.00
2019-01-20T03:58:36.108Z,11.47
2019-01-20T04:01:05.624Z,11.60
2019-01-20T04:03:35.087Z,7.83
2019-01-20T04:06:05.294Z,10.27
2019-01-20T04:08:34.788Z,11.83
2019-01-20T04:11:04.414Z,9.73
2019-01-20T04:13:33.911Z,10.33
2019-01-20T04:16:03.462Z,10.07
2019-01-20T04:18:32.962Z,9.67
2019-01-20T04:21:02.488Z,8.60
2019-01-20T04:23:31.987Z,11.00
2019-01-20T04:26:01.462Z,12.87
2019-01-20T04:28:30.998Z,10.13
2019-01-20T04:31:00.473Z,9.50
2019-01-20T04:33:29.976Z,13.90
2019-01-20T04:35:59.713Z,12.33
2019-01-20T04:38:29.242Z,11.77
2019-01-20T04:40:58.798Z,12.50
2019-01-20T04:43:28.251Z,10.43
2019-01-20T04:45:57.786Z,9.67
2019-01-20T04:48:27.288Z,12.33
2019-01-20T04:50:56.789Z,10.90
2019-01-20T04:53:27.313Z,12.40
2019-01-20T04:55:56.800Z,11.43
2019-01-20T04:58:26.478Z,14.20
2019-01-20T05:00:56.003Z,10.07
2019-01-20T05:03:25.467Z,10.83
2019-01-20T05:05:55.031Z,10.73
2019-01-20T05:08:24.510Z,13.40
2019-01-20T05:10:54.138Z,11.07
2019-01-20T05:13:23.668Z,10.53
2019-01-20T05:15:53.189Z,10.47
2019-01-20T05:18:22.675Z,11.03
2019-01-20T05:20:52.169Z,10.40
2019-01-20T05:23:21.687Z,8.20
2019-01-20T05:25:51.220Z,10.23
2019-01-20T05:28:20.722Z,11.60
2019-01-20T05:30:50.265Z,10.33
2019-01-20T05:33:19.727Z,10.77
2019-01-20T05:35:49.222Z,10.27
2019-01-20T05:38:18.840Z,12.33
2019-01-20T05:40:48.311Z,9.57
2019-01-20T05:43:17.779Z,11.37
2019-01-20T05:45:47.249Z,13.63
2019-01-20T05:48:16.103Z,11.47
2019-01-20T05:50:45.597Z,10.93
2019-01-20T05:53:15.072Z,11.10
2019-01-20T05:55:44.606Z,12.83
2019-01-20T05:58:14.127Z,10.03
2019-01-20T06:00:43.605Z,11.40
2019-01-20T06:03:13.082Z,9.83
2019-01-20T06:05:42.666Z,10.07
2019-01-20T06:08:12.189Z,10.53
2019-01-20T06:10:41.666Z,11.23
2019-01-20T06:13:11.183Z,9.67
2019-01-20T06:15:40.702Z,9.20
2019-01-20T06:18:10.211Z,8.20
2019-01-20T06:20:39.727Z,10.50
2019-01-20T06:23:09.237Z,9.43
2019-01-20T06:25:38.743Z,10.27
2019-01-20T06:28:08.229Z,11.27
2019-01-20T06:30:37.686Z,8.50
2019-01-20T06:33:07.170Z,10.47
2019-01-20T06:35:36.629Z,9.27
2019-01-20T06:38:06.116Z,12.17
2019-01-20T06:40:35.630Z,9.63
2019-01-20T06:43:05.078Z,9.67
2019-01-20T06:45:34.614Z,12.93
2019-01-20T06:48:04.141Z,8.73
2019-01-20T06:50:33.632Z,10.50
2019-01-20T06:53:03.142Z,10.00
2019-01-20T06:55:32.653Z,8.17
2019-01-20T06:58:02.115Z,8.20
2019-01-20T07:00:31.619Z,8.03
2019-01-20T07:03:01.160Z,10.30
2019-01-20T07:05:30.673Z,8.83
2019-01-20T07:08:00.186Z,8.50
2019-01-20T07:10:29.682Z,8.60
2019-01-20T07:12:59.211Z,9.93
2019-01-20T07:15:28.850Z,11.73
2019-01-20T07:17:58.372Z,9.83
2019-01-20T07:20:27.868Z,9.23
2019-01-20T07:22:57.349Z,9.20
2019-01-20T07:25:26.830Z,9.50
2019-01-20T07:27:56.338Z,9.63
2019-01-20T07:30:25.820Z,10.23
2019-01-20T07:32:55.313Z,9.90
2019-01-20T07:35:24.809Z,9.47
2019-01-20T07:37:54.324Z,8.23
2019-01-20T07:40:24.706Z,10.93
2019-01-20T07:42:54.225Z,8.57
2019-01-20T07:45:23.811Z,9.67
2019-01-20T07:47:53.289Z,9.20
2019-01-20T07:50:24.646Z,15.17
2019-01-20T07:52:54.144Z,11.73
2019-01-20T07:55:23.724Z,10.63
2019-01-20T07:57:53.415Z,16.00
2019-01-20T08:00:24.750Z,9.40
2019-01-20T08:02:54.243Z,10.10
2019-01-20T08:05:23.931Z,10.10
2019-01-20T08:07:53.499Z,10.03
2019-01-20T08:10:28.111Z,12.10
2019-01-20T08:12:57.708Z,10.73
2019-01-20T08:15:28.091Z,13.93
2019-01-20T08:17:57.638Z,11.93
2019-01-20T08:20:27.210Z,11.93
2019-01-20T08:22:56.720Z,11.57
2019-01-20T08:25:26.204Z,11.93
2019-01-20T08:27:55.746Z,15.97
2019-01-20T08:30:27.225Z,13.43
2019-01-20T08:32:56.713Z,9.67
2019-01-20T08:35:26.277Z,13.87
2019-01-20T08:37:55.805Z,17.27
2019-01-20T08:40:31.698Z,14.00
2019-01-20T08:43:01.458Z,15.40
2019-01-20T08:45:39.951Z,16.03
2019-01-20T08:48:14.270Z,15.67
2019-01-20T08:50:44.515Z,15.50
2019-01-20T08:53:14.261Z,18.20
2019-01-20T08:55:49.869Z,17.47
2019-01-20T08:58:19.539Z,17.07
2019-01-20T09:00:49.087Z,17.73
2019-01-20T09:03:18.569Z,21.83
2019-01-20T09:05:48.127Z,25.43
2019-01-20T09:08:17.674Z,49.73
2019-01-20T09:10:47.151Z,31.30
2019-01-20T09:13:16.660Z,22.20
2019-01-20T09:15:46.206Z,19.17
2019-01-20T09:18:15.715Z,17.33
2019-01-20T09:20:45.267Z,20.63
2019-01-20T09:23:14.771Z,17.70
2019-01-20T09:25:44.408Z,17.93
2019-01-20T09:28:13.907Z,19.33
2019-01-20T09:30:43.409Z,19.53
2019-01-20T09:33:12.939Z,22.90
2019-01-20T09:35:42.414Z,45.03
2019-01-20T09:38:11.983Z,41.73
2019-01-20T09:40:42.935Z,18.00
2019-01-20T09:43:13.725Z,18.53
2019-01-20T09:45:45.515Z,17.77
2019-01-20T09:48:16.390Z,16.97
2019-01-20T09:50:47.429Z,21.40
2019-01-20T09:53:18.632Z,21.10
2019-01-20T09:55:49.377Z,18.70
2019-01-20T09:58:20.336Z,15.07
2019-01-20T10:00:51.583Z,15.63
2019-01-20T10:03:20.468Z,17.27
2019-01-20T10:05:50.133Z,17.57
2019-01-20T10:08:19.701Z,15.17
2019-01-20T10:10:49.255Z,18.33
2019-01-20T10:13:18.736Z,15.93
2019-01-20T10:15:48.299Z,19.50
2019-01-20T10:18:17.289Z,17.00
2019-01-20T10:20:46.777Z,17.20
2019-01-20T10:23:16.278Z,15.47
2019-01-20T10:25:45.796Z,14.63
2019-01-20T10:28:18.099Z,16.97
2019-01-20T10:30:47.584Z,14.63
2019-01-20T10:33:17.091Z,14.60
2019-01-20T10:35:57.402Z,15.53
2019-01-20T10:38:26.901Z,15.67
2019-01-20T10:40:56.378Z,16.07
2019-01-20T10:43:25.896Z,16.07
2019-01-20T10:45:55.587Z,13.13
2019-01-20T10:48:25.115Z,14.50
2019-01-20T10:50:54.606Z,18.43
2019-01-20T10:53:24.129Z,16.30
2019-01-20T10:55:53.637Z,16.43
2019-01-20T10:58:23.142Z,15.33
2019-01-20T11:00:52.634Z,17.40
2019-01-20T11:03:22.174Z,17.40
2019-01-20T11:05:51.822Z,16.40
2019-01-20T11:08:21.435Z,22.60
2019-01-20T11:10:50.949Z,14.83
2019-01-20T11:13:20.454Z,15.97
2019-01-20T11:15:51.577Z,18.10
2019-01-20T11:18:21.072Z,14.47
2019-01-20T11:20:50.594Z,17.43
2019-01-20T11:23:21.701Z,12.67
2019-01-20T11:25:51.186Z,13.60
2019-01-20T11:28:20.728Z,17.73
2019-01-20T11:30:50.237Z,30.17
2019-01-20T11:33:19.742Z,14.30
2019-01-20T11:35:50.487Z,15.60
2019-01-20T11:38:19.979Z,13.57
2019-01-20T11:40:49.492Z,15.53
2019-01-20T11:43:18.992Z,14.13
2019-01-20T11:45:48.614Z,11.97
2019-01-20T11:48:18.143Z,11.53
2019-01-20T11:50:47.780Z,13.50
2019-01-20T11:53:17.288Z,16.50
2019-01-20T11:55:46.909Z,16.20
2019-01-20T11:58:16.418Z,18.67
2019-01-20T12:00:45.917Z,21.27
2019-01-20T12:03:15.432Z,16.10
2019-01-20T12:05:46.683Z,18.60
2019-01-20T12:08:16.220Z,21.97
2019-01-20T12:10:45.715Z,20.87
2019-01-20T12:13:20.994Z,20.70
2019-01-20T12:15:50.497Z,19.70
2019-01-20T12:18:20.023Z,23.17
2019-01-20T12:20:49.517Z,21.73
2019-01-20T12:23:19.013Z,22.50
2019-01-20T12:25:48.522Z,24.97
2019-01-20T12:28:17.980Z,21.63
2019-01-20T12:30:47.514Z,25.73
2019-01-20T12:33:16.991Z,22.23
2019-01-20T12:35:46.513Z,21.27
2019-01-20T12:38:16.037Z,20.97
2019-01-20T12:40:47.540Z,19.47
2019-01-20T12:43:17.027Z,19.23
2019-01-20T12:45:46.511Z,19.43
2019-01-20T12:48:16.042Z,16.87
2019-01-20T12:50:45.580Z,18.57
2019-01-20T12:53:15.130Z,16.23
2019-01-20T12:55:44.634Z,16.37
2019-01-20T12:58:14.243Z,17.37
2019-01-20T13:00:43.707Z,18.17
2019-01-20T13:03:13.228Z,20.40
2019-01-20T13:05:42.888Z,24.80
2019-01-20T13:08:12.463Z,21.00
2019-01-20T13:10:42.367Z,19.80
2019-01-20T13:13:11.881Z,19.03
2019-01-20T13:15:41.358Z,17.97
2019-01-20T13:18:10.900Z,18.03
2019-01-20T13:20:41.146Z,16.90
2019-01-20T13:23:10.702Z,17.00
2019-01-20T13:25:40.214Z,19.73
2019-01-20T13:28:09.748Z,20.77
2019-01-20T13:30:39.250Z,21.73
2019-01-20T13:33:08.792Z,21.70
2019-01-20T13:35:38.292Z,20.87
2019-01-20T13:38:18.701Z,18.80
2019-01-20T13:40:54.876Z,19.47
2019-01-20T13:43:24.488Z,21.50
2019-01-20T13:45:53.966Z,22.53
2019-01-20T13:48:23.479Z,19.47
2019-01-20T13:50:52.995Z,20.37
2019-01-20T13:53:22.664Z,21.07
2019-01-20T13:55:52.267Z,19.07
2019-01-20T13:58:21.774Z,20.10
2019-01-20T14:00:51.278Z,19.40
2019-01-20T14:03:20.820Z,21.53
2019-01-20T14:05:50.361Z,20.17
2019-01-20T14:08:19.877Z,17.53
2019-01-20T14:10:49.395Z,16.87
2019-01-20T14:13:18.930Z,18.00
2019-01-20T14:15:48.453Z,15.67
2019-01-20T14:18:20.717Z,17.87
2019-01-20T14:20:50.203Z,19.30
2019-01-20T14:23:19.741Z,19.27
2019-01-20T14:25:49.245Z,17.53
2019-01-20T14:28:18.721Z,18.50
2019-01-20T14:30:48.231Z,19.77
2019-01-20T14:33:17.753Z,18.93
2019-01-20T14:35:47.907Z,24.90
2019-01-20T14:38:17.399Z,49.90
2019-01-20T14:40:46.916Z,32.27
2019-01-20T14:43:16.410Z,38.50
2019-01-20T14:45:45.959Z,35.50
2019-01-20T14:48:15.450Z,41.83
2019-01-20T14:50:45.029Z,37.23
2019-01-20T14:53:14.535Z,60.73
2019-01-20T14:55:45.578Z,34.10
2019-01-20T14:58:15.052Z,41.43
2019-01-20T15:00:43.946Z,41.20
2019-01-20T15:03:13.453Z,34.53
2019-01-20T15:05:42.979Z,35.13
2019-01-20T15:08:12.505Z,39.03
2019-01-20T15:10:42.008Z,39.23
2019-01-20T15:13:11.483Z,36.80
2019-01-20T15:15:41.989Z,47.67
2019-01-20T15:18:11.486Z,54.43
2019-01-20T15:20:41.587Z,43.20
2019-01-20T15:23:11.250Z,61.20
2019-01-20T15:25:40.933Z,43.30
2019-01-20T15:28:10.444Z,46.53
2019-01-20T15:30:39.991Z,42.73
2019-01-20T15:33:09.438Z,47.67
2019-01-20T15:35:39.086Z,53.10
2019-01-20T15:38:08.678Z,43.97
2019-01-20T15:40:38.203Z,46.50
2019-01-20T15:43:07.688Z,51.17
2019-01-20T15:45:37.195Z,50.47
2019-01-20T15:48:06.922Z,52.53
2019-01-20T15:50:36.410Z,51.40
2019-01-20T15:53:05.907Z,57.10
2019-01-20T15:55:35.509Z,56.63
2019-01-20T15:58:05.186Z,57.67
2019-01-20T16:00:34.669Z,59.23
2019-01-20T16:03:04.170Z,59.50
2019-01-20T16:05:33.640Z,60.23
2019-01-20T16:08:03.176Z,61.70
2019-01-20T16:10:32.709Z,52.30
2019-01-20T16:13:02.215Z,58.60
2019-01-20T16:15:38.271Z,56.63
2019-01-20T16:18:07.795Z,63.40
2019-01-20T16:20:37.262Z,63.90
2019-01-20T16:23:08.436Z,64.97
2019-01-20T16:25:37.792Z,64.87
2019-01-20T16:28:08.911Z,67.40
2019-01-20T16:30:39.784Z,67.83
2019-01-20T16:33:09.395Z,74.50
2019-01-20T16:35:38.883Z,65.30
2019-01-20T16:38:10.202Z,72.00
2019-01-20T16:40:41.504Z,67.23
2019-01-20T16:43:12.275Z,73.00
2019-01-20T16:45:44.651Z,65.83
2019-01-20T16:48:14.232Z,65.67
2019-01-20T16:50:43.807Z,63.47
2019-01-20T16:53:13.395Z,66.10
2019-01-20T16:55:42.870Z,64.17
2019-01-20T16:58:12.461Z,64.40
2019-01-20T17:00:44.019Z,69.37
2019-01-20T17:03:13.600Z,64.83
2019-01-20T17:05:43.158Z,69.50
2019-01-20T17:08:12.766Z,62.13
2019-01-20T17:10:43.419Z,67.60
2019-01-20T17:13:13.418Z,68.13
2019-01-20T17:15:44.900Z,63.67
2019-01-20T17:18:15.874Z,61.60
2019-01-20T17:20:45.711Z,63.00
2019-01-20T17:23:15.566Z,76.40
2019-01-20T17:25:45.063Z,70.13
2019-01-20T17:28:14.602Z,64.90
2019-01-20T17:30:44.735Z,71.63
2019-01-20T17:33:15.866Z,73.47
2019-01-20T17:35:45.361Z,73.10
2019-01-20T17:38:14.902Z,71.60
2019-01-20T17:40:48.198Z,81.40
2019-01-20T17:43:17.694Z,74.80
2019-01-20T17:45:49.841Z,73.73
2019-01-20T17:48:18.416Z,76.20
2019-01-20T17:50:47.944Z,73.47
2019-01-20T17:53:17.449Z,76.43
2019-01-20T17:55:47.019Z,73.47
2019-01-20T17:58:18.244Z,76.50
2019-01-20T18:00:50.770Z,69.90
2019-01-20T18:03:20.404Z,73.53
2019-01-20T18:05:50.582Z,67.30
2019-01-20T18:08:20.091Z,66.57
2019-01-20T18:10:49.655Z,69.07
2019-01-20T18:13:20.653Z,60.77
2019-01-20T18:15:54.451Z,63.77
2019-01-20T18:18:21.297Z,61.90
2019-01-20T18:20:50.774Z,59.43
2019-01-20T18:23:20.242Z,57.57
2019-01-20T18:25:49.722Z,60.43
2019-01-20T18:28:19.168Z,52.43
2019-01-20T18:30:48.670Z,59.37
2019-01-20T18:33:18.181Z,60.37
2019-01-20T18:35:47.686Z,57.93
2019-01-20T18:38:17.162Z,60.90
2019-01-20T18:40:46.699Z,63.10
2019-01-20T18:43:16.182Z,66.47
2019-01-20T18:45:45.697Z,66.07
2019-01-20T18:48:15.176Z,62.90
2019-01-20T18:50:44.661Z,60.87
2019-01-20T18:53:14.178Z,64.03
2019-01-20T18:55:43.006Z,58.60
2019-01-20T18:58:12.463Z,57.17
2019-01-20T19:00:45.162Z,60.27
2019-01-20T19:03:14.649Z,60.40
2019-01-20T19:05:44.170Z,62.60
2019-01-20T19:08:13.700Z,65.00
2019-01-20T19:10:43.238Z,63.13
2019-01-20T19:13:12.725Z,58.10
2019-01-20T19:15:42.259Z,60.07
2019-01-20T19:18:18.657Z,58.93
2019-01-20T19:20:42.894Z,58.20
2019-01-20T19:23:12.399Z,55.17
2019-01-20T19:25:41.361Z,57.13
2019-01-20T19:28:10.862Z,62.17
2019-01-20T19:30:40.363Z,62.97
2019-01-20T19:33:09.879Z,57.50
2019-01-20T19:35:39.390Z,66.13
2019-01-20T19:38:08.907Z,66.37
2019-01-20T19:40:38.403Z,70.77
2019-01-20T19:43:07.911Z,70.70
2019-01-20T19:45:37.410Z,66.80
2019-01-20T19:48:06.892Z,63.97
2019-01-20T19:50:36.361Z,58.03
2019-01-20T19:53:05.911Z,59.40
2019-01-20T19:55:35.647Z,61.77
2019-01-20T19:58:05.375Z,60.30
2019-01-20T20:00:34.958Z,59.20
2019-01-20T20:03:05.017Z,58.63
2019-01-20T20:05:34.485Z,54.03
2019-01-20T20:08:03.350Z,56.17
2019-01-20T20:10:33.076Z,50.67
2019-01-20T20:13:02.593Z,52.20
2019-01-20T20:15:32.122Z,54.47
2019-01-20T20:18:01.644Z,49.87
2019-01-20T20:20:31.177Z,50.20
2019-01-20T20:23:00.657Z,51.00
2019-01-20T20:25:30.158Z,47.37
2019-01-20T20:27:59.658Z,51.17
2019-01-20T20:30:34.450Z,46.27
2019-01-20T20:33:04.189Z,49.67
2019-01-20T20:35:33.657Z,46.47
2019-01-20T20:38:03.177Z,47.40
2019-01-20T20:40:32.672Z,47.13
2019-01-20T20:43:02.194Z,53.57
2019-01-20T20:45:31.695Z,49.10
2019-01-20T20:48:01.187Z,45.77
2019-01-20T20:50:30.677Z,45.20
2019-01-20T20:52:59.609Z,48.60
2019-01-20T20:55:29.062Z,52.10
2019-01-20T20:57:58.589Z,46.27
2019-01-20T21:00:37.154Z,46.23
2019-01-20T21:03:10.493Z,44.13
2019-01-20T21:05:39.337Z,47.33
2019-01-20T21:08:09.163Z,49.63
2019-01-20T21:10:38.670Z,49.87
2019-01-20T21:13:08.286Z,49.87
2019-01-20T21:15:37.793Z,49.33
2019-01-20T21:18:07.315Z,41.60
2019-01-20T21:20:36.790Z,40.47
2019-01-20T21:23:11.990Z,50.13
2019-01-20T21:25:37.604Z,41.03
2019-01-20T21:28:07.155Z,44.27
2019-01-20T21:30:36.655Z,43.67
2019-01-20T21:33:06.134Z,47.33
2019-01-20T21:35:35.604Z,45.20
2019-01-20T21:38:06.946Z,75.17
2019-01-20T21:40:36.362Z,59.40
2019-01-20T21:43:05.990Z,48.73
2019-01-20T21:45:35.514Z,46.03
2019-01-20T21:48:04.992Z,51.10
2019-01-20T21:50:34.487Z,45.50
2019-01-20T21:53:04.004Z,43.63
2019-01-20T21:55:34.249Z,41.33
2019-01-20T21:58:03.883Z,42.93
2019-01-20T22:00:33.358Z,39.37
2019-01-20T22:03:02.864Z,40.40
2019-01-20T22:05:32.368Z,40.83
2019-01-20T22:08:01.861Z,39.77
2019-01-20T22:10:31.554Z,42.73
2019-01-20T22:13:01.118Z,38.57
2019-01-20T22:15:30.607Z,40.27
2019-01-20T22:18:00.094Z,42.83
2019-01-20T22:20:29.726Z,40.13
2019-01-20T22:22:59.216Z,41.00
2019-01-20T22:25:28.718Z,34.27
2019-01-20T22:27:58.241Z,37.53
2019-01-20T22:30:28.374Z,41.30
2019-01-20T22:32:57.863Z,42.17
2019-01-20T22:35:27.354Z,45.77
2019-01-20T22:37:56.837Z,41.97
2019-01-20T22:40:26.334Z,46.70
2019-01-20T22:42:55.836Z,42.20
2019-01-20T22:45:29.192Z,44.20
2019-01-20T22:47:58.719Z,43.60
2019-01-20T22:50:28.452Z,42.90
2019-01-20T22:52:57.957Z,45.97
2019-01-20T22:55:27.475Z,46.80
2019-01-20T22:57:56.970Z,45.80
2019-01-20T23:01:03.249Z,54.50
2019-01-20T23:03:32.834Z,45.77
2019-01-20T23:06:02.341Z,45.57
2019-01-20T23:08:31.839Z,44.40
2019-01-20T23:11:01.400Z,45.93
2019-01-20T23:13:30.941Z,41.60
2019-01-20T23:15:59.832Z,46.73
2019-01-20T23:18:29.306Z,52.60
2019-01-20T23:20:58.799Z,46.13
2019-01-20T23:23:28.295Z,41.67
2019-01-20T23:25:57.801Z,51.17
2019-01-20T23:28:27.324Z,46.37
2019-01-20T23:30:56.813Z,47.70
2019-01-20T23:33:26.326Z,51.10
2019-01-20T23:35:55.857Z,54.07
2019-01-20T23:38:25.361Z,49.87
2019-01-20T23:40:54.869Z,50.00
2019-01-20T23:43:24.359Z,43.97
2019-01-20T23:45:53.818Z,50.30
2019-01-20T23:48:23.349Z,47.07
2019-01-20T23:50:52.865Z,48.80
2019-01-20T23:53:22.482Z,57.43
2019-01-20T23:55:52.083Z,48.93
2019-01-20T23:58:21.573Z,50.90
